sensor_id;sensor_type;location;lat;lon;timestamp;pressure;altitude;pressure_sealevel;temperature;humidity
71195;BME280;58908;51.426;7.714;2023-01-27T00:01:09;100455.09;;;1.01;100.00
71195;BME280;58908;51.426;7.714;2023-01-27T00:03:39;100457.75;;;0.97;100.00
71195;BME280;58908;51.426;7.714;2023-01-27T00:06:05;100452.53;;;0.97;100.00
71195;BME280;58908;51.426;7.714;2023-01-27T00:08:35;100456.03;;;0.97;100.00
71195;BME280;58908;51.426;7.714;2023-01-27T00:11:03;100449.91;;;1.00;100.00
71195;BME280;58908;51.426;7.714;2023-01-27T00:13:47;100448.19;;;0.99;100.00
71195;BME280;58908;51.426;7.714;2023-01-27T00:16:13;100456.03;;;0.97;100.00
71195;BME280;58908;51.426;7.714;2023-01-27T00:18:39;100451.66;;;0.99;100.00
71195;BME280;58908;51.426;7.714;2023-01-27T00:21:05;100456.88;;;0.99;100.00
71195;BME280;58908;51.426;7.714;2023-01-27T00:23:49;100460.31;;;1.01;100.00
71195;BME280;58908;51.426;7.714;2023-01-27T00:26:35;100462.06;;;0.99;100.00
71195;BME280;58908;51.426;7.714;2023-01-27T00:29:01;100455.09;;;1.03;100.00
71195;BME280;58908;51.426;7.714;2023-01-27T00:31:27;100457.66;;;1.04;100.00
71195;BME280;58908;51.426;7.714;2023-01-27T00:34:11;100459.41;;;1.05;100.00
71195;BME280;58908;51.426;7.714;2023-01-27T00:36:38;100460.25;;;1.09;100.00
71195;BME280;58908;51.426;7.714;2023-01-27T00:39:04;100459.34;;;1.11;100.00
71195;BME280;58908;51.426;7.714;2023-01-27T00:41:31;100475.78;;;1.13;100.00
71195;BME280;58908;51.426;7.714;2023-01-27T00:43:59;100477.53;;;1.11;100.00
71195;BME280;58908;51.426;7.714;2023-01-27T00:46:26;100481.88;;;1.12;100.00
71195;BME280;58908;51.426;7.714;2023-01-27T00:48:52;100478.41;;;1.10;100.00
71195;BME280;58908;51.426;7.714;2023-01-27T00:51:18;100484.47;;;1.14;100.00
71195;BME280;58908;51.426;7.714;2023-01-27T00:53:45;100484.50;;;1.09;100.00
71195;BME280;58908;51.426;7.714;2023-01-27T00:56:12;100481.91;;;1.08;100.00
71195;BME280;58908;51.426;7.714;2023-01-27T00:58:38;100475.84;;;1.06;100.00
71195;BME280;58908;51.426;7.714;2023-01-27T01:01:08;100475.00;;;1.04;100.00
71195;BME280;58908;51.426;7.714;2023-01-27T01:03:35;100475.00;;;1.04;100.00
71195;BME280;58908;51.426;7.714;2023-01-27T01:06:02;100476.72;;;1.03;100.00
71195;BME280;58908;51.426;7.714;2023-01-27T01:08:28;100478.47;;;1.01;100.00
71195;BME280;58908;51.426;7.714;2023-01-27T01:10:55;100479.34;;;1.00;100.00
71195;BME280;58908;51.426;7.714;2023-01-27T01:13:21;100479.34;;;1.00;100.00
71195;BME280;58908;51.426;7.714;2023-01-27T01:15:47;100483.72;;;0.97;100.00
71195;BME280;58908;51.426;7.714;2023-01-27T01:18:15;100484.59;;;0.96;100.00
71195;BME280;58908;51.426;7.714;2023-01-27T01:20:42;100489.78;;;0.96;100.00
71195;BME280;58908;51.426;7.714;2023-01-27T01:23:09;100488.06;;;0.93;100.00
71195;BME280;58908;51.426;7.714;2023-01-27T01:25:36;100486.34;;;0.92;100.00
71195;BME280;58908;51.426;7.714;2023-01-27T01:28:03;100498.47;;;0.90;100.00
71195;BME280;58908;51.426;7.714;2023-01-27T01:30:30;100490.69;;;0.89;100.00
71195;BME280;58908;51.426;7.714;2023-01-27T01:32:56;100497.63;;;0.88;100.00
71195;BME280;58908;51.426;7.714;2023-01-27T01:35:24;100492.47;;;0.85;100.00
71195;BME280;58908;51.426;7.714;2023-01-27T01:37:50;100496.78;;;0.86;100.00
71195;BME280;58908;51.426;7.714;2023-01-27T01:40:17;100501.13;;;0.84;100.00
71195;BME280;58908;51.426;7.714;2023-01-27T01:42:54;100508.03;;;0.84;100.00
71195;BME280;58908;51.426;7.714;2023-01-27T01:48:10;100496.78;;;0.85;100.00
71195;BME280;58908;51.426;7.714;2023-01-27T01:50:41;100495.94;;;0.84;100.00
71195;BME280;58908;51.426;7.714;2023-01-27T01:53:08;100492.47;;;0.84;100.00
71195;BME280;58908;51.426;7.714;2023-01-27T01:55:35;100492.47;;;0.82;100.00
71195;BME280;58908;51.426;7.714;2023-01-27T01:58:02;100489.88;;;0.84;100.00
71195;BME280;58908;51.426;7.714;2023-01-27T02:00:30;100482.94;;;0.83;100.00
71195;BME280;58908;51.426;7.714;2023-01-27T02:02:56;100488.16;;;0.84;100.00
71195;BME280;58908;51.426;7.714;2023-01-27T02:05:23;100489.00;;;0.85;100.00
71195;BME280;58908;51.426;7.714;2023-01-27T02:07:53;100487.28;;;0.85;100.00
71195;BME280;58908;51.426;7.714;2023-01-27T02:10:22;100499.38;;;0.86;100.00
71195;BME280;58908;51.426;7.714;2023-01-27T02:12:48;100492.47;;;0.84;100.00
71195;BME280;58908;51.426;7.714;2023-01-27T02:15:15;100489.88;;;0.85;100.00
71195;BME280;58908;51.426;7.714;2023-01-27T02:17:41;100496.78;;;0.85;100.00
71195;BME280;58908;51.426;7.714;2023-01-27T02:20:08;100492.47;;;0.85;100.00
71195;BME280;58908;51.426;7.714;2023-01-27T02:22:38;100499.38;;;0.86;100.00
71195;BME280;58908;51.426;7.714;2023-01-27T02:25:09;100490.72;;;0.87;100.00
71195;BME280;58908;51.426;7.714;2023-01-27T02:27:41;100492.47;;;0.85;100.00
71195;BME280;58908;51.426;7.714;2023-01-27T02:30:07;100496.78;;;0.86;100.00
71195;BME280;58908;51.426;7.714;2023-01-27T02:32:34;100498.50;;;0.87;100.00
71195;BME280;58908;51.426;7.714;2023-01-27T02:35:00;100485.53;;;0.87;100.00
71195;BME280;58908;51.426;7.714;2023-01-27T02:37:27;100490.72;;;0.87;100.00
71195;BME280;58908;51.426;7.714;2023-01-27T02:39:54;100494.16;;;0.88;100.00
71195;BME280;58908;51.426;7.714;2023-01-27T02:42:21;100494.19;;;0.86;100.00
71195;BME280;58908;51.426;7.714;2023-01-27T02:44:49;100491.56;;;0.88;100.00
71195;BME280;58908;51.426;7.714;2023-01-27T02:47:15;100488.13;;;0.86;100.00
71195;BME280;58908;51.426;7.714;2023-01-27T02:49:41;100491.56;;;0.88;100.00
71195;BME280;58908;51.426;7.714;2023-01-27T02:52:08;100492.44;;;0.88;100.00
71195;BME280;58908;51.426;7.714;2023-01-27T02:54:34;100493.28;;;0.89;100.00
71195;BME280;58908;51.426;7.714;2023-01-27T02:57:00;100491.56;;;0.89;100.00
71195;BME280;58908;51.426;7.714;2023-01-27T02:59:26;100495.88;;;0.90;100.00
71195;BME280;58908;51.426;7.714;2023-01-27T03:01:54;100495.03;;;0.90;100.00
71195;BME280;58908;51.426;7.714;2023-01-27T03:04:20;100491.56;;;0.89;100.00
71195;BME280;58908;51.426;7.714;2023-01-27T03:06:46;100497.59;;;0.91;100.00
71195;BME280;58908;51.426;7.714;2023-01-27T03:09:13;100491.56;;;0.89;100.00
71195;BME280;58908;51.426;7.714;2023-01-27T03:11:39;100492.41;;;0.91;100.00
71195;BME280;58908;51.426;7.714;2023-01-27T03:14:23;100492.41;;;0.91;100.00
71195;BME280;58908;51.426;7.714;2023-01-27T03:17:08;100495.00;;;0.93;100.00
71195;BME280;58908;51.426;7.714;2023-01-27T03:19:52;100495.84;;;0.93;100.00
71195;BME280;58908;51.426;7.714;2023-01-27T03:22:18;100486.34;;;0.94;100.00
71195;BME280;58908;51.426;7.714;2023-01-27T03:24:45;100488.94;;;0.94;100.00
71195;BME280;58908;51.426;7.714;2023-01-27T03:27:11;100482.00;;;0.96;100.00
71195;BME280;58908;51.426;7.714;2023-01-27T03:29:37;100493.22;;;0.98;100.00
71195;BME280;58908;51.426;7.714;2023-01-27T03:32:24;100487.19;;;0.97;100.00
71195;BME280;58908;51.426;7.714;2023-01-27T03:34:50;100488.91;;;0.97;100.00
71195;BME280;58908;51.426;7.714;2023-01-27T03:37:16;100488.91;;;0.97;100.00
71195;BME280;58908;51.426;7.714;2023-01-27T03:40:00;100488.06;;;0.96;100.00
71195;BME280;58908;51.426;7.714;2023-01-27T03:42:44;100488.03;;;0.98;100.00
71195;BME280;58908;51.426;7.714;2023-01-27T03:45:28;100491.50;;;0.97;100.00
71195;BME280;58908;51.426;7.714;2023-01-27T03:48:13;100494.94;;;0.99;100.00
71195;BME280;58908;51.426;7.714;2023-01-27T03:50:42;100495.81;;;0.99;100.00
71195;BME280;58908;51.426;7.714;2023-01-27T03:53:08;100498.41;;;0.98;100.00
71195;BME280;58908;51.426;7.714;2023-01-27T03:55:36;100494.09;;;0.98;100.00
71195;BME280;58908;51.426;7.714;2023-01-27T03:58:02;100500.13;;;0.99;100.00
71195;BME280;58908;51.426;7.714;2023-01-27T04:00:42;100501.88;;;0.98;100.00
71195;BME280;58908;51.426;7.714;2023-01-27T04:03:08;100497.53;;;0.99;100.00
71195;BME280;58908;51.426;7.714;2023-01-27T04:05:53;100493.19;;;1.02;100.00
71195;BME280;58908;51.426;7.714;2023-01-27T04:08:37;100493.16;;;1.05;100.00
71195;BME280;58908;51.426;7.714;2023-01-27T04:11:03;100496.63;;;1.07;100.00
71195;BME280;58908;51.426;7.714;2023-01-27T04:13:48;100500.94;;;1.07;100.00
71195;BME280;58908;51.426;7.714;2023-01-27T04:16:15;100499.22;;;1.07;100.00
71195;BME280;58908;51.426;7.714;2023-01-27T04:18:41;100505.31;;;1.06;100.00
71195;BME280;58908;51.426;7.714;2023-01-27T04:21:09;100496.63;;;1.06;100.00
71195;BME280;58908;51.426;7.714;2023-01-27T04:23:37;100507.91;;;1.05;100.00
71195;BME280;58908;51.426;7.714;2023-01-27T04:26:03;100506.16;;;1.07;100.00
71195;BME280;58908;51.426;7.714;2023-01-27T04:28:29;100512.22;;;1.07;100.00
71195;BME280;58908;51.426;7.714;2023-01-27T04:30:57;100511.34;;;1.07;100.00
71195;BME280;58908;51.426;7.714;2023-01-27T04:33:23;100512.22;;;1.06;100.00
71195;BME280;58908;51.426;7.714;2023-01-27T04:35:49;100513.06;;;1.08;100.00
71195;BME280;58908;51.426;7.714;2023-01-27T04:38:17;100513.94;;;1.08;100.00
71195;BME280;58908;51.426;7.714;2023-01-27T04:40:44;100513.94;;;1.08;100.00
71195;BME280;58908;51.426;7.714;2023-01-27T04:43:10;100513.91;;;1.10;100.00
71195;BME280;58908;51.426;7.714;2023-01-27T04:45:36;100519.09;;;1.13;100.00
71195;BME280;58908;51.426;7.714;2023-01-27T04:48:03;100520.81;;;1.12;100.00
71195;BME280;58908;51.426;7.714;2023-01-27T04:50:30;100509.59;;;1.12;100.00
71195;BME280;58908;51.426;7.714;2023-01-27T04:52:56;100518.22;;;1.14;100.00
71195;BME280;58908;51.426;7.714;2023-01-27T04:55:24;100520.78;;;1.15;100.00
71195;BME280;58908;51.426;7.714;2023-01-27T04:57:50;100524.28;;;1.17;100.00
71195;BME280;58908;51.426;7.714;2023-01-27T05:00:17;100521.63;;;1.19;100.00
71195;BME280;58908;51.426;7.714;2023-01-27T05:02:43;100523.41;;;1.18;100.00
71195;BME280;58908;51.426;7.714;2023-01-27T05:05:09;100526.84;;;1.19;100.00
71195;BME280;58908;51.426;7.714;2023-01-27T05:07:36;100528.59;;;1.18;100.00
71195;BME280;58908;51.426;7.714;2023-01-27T05:10:03;100535.47;;;1.22;100.00
71195;BME280;58908;51.426;7.714;2023-01-27T05:12:34;100531.97;;;1.26;100.00
71195;BME280;58908;51.426;7.714;2023-01-27T05:15:00;100531.97;;;1.28;100.00
71195;BME280;58908;51.426;7.714;2023-01-27T05:17:29;100532.84;;;1.28;100.00
71195;BME280;58908;51.426;7.714;2023-01-27T05:19:56;100531.09;;;1.29;100.00
71195;BME280;58908;51.426;7.714;2023-01-27T05:22:22;100533.69;;;1.30;100.00
71195;BME280;58908;51.426;7.714;2023-01-27T05:24:48;100535.38;;;1.34;100.00
71195;BME280;58908;51.426;7.714;2023-01-27T05:27:15;100537.97;;;1.36;100.00
71195;BME280;58908;51.426;7.714;2023-01-27T05:29:42;100544.03;;;1.36;100.00
71195;BME280;58908;51.426;7.714;2023-01-27T05:32:09;100537.94;;;1.37;100.00
71195;BME280;58908;51.426;7.714;2023-01-27T05:34:35;100541.41;;;1.36;100.00
71195;BME280;58908;51.426;7.714;2023-01-27T05:37:01;100542.25;;;1.38;100.00
71195;BME280;58908;51.426;7.714;2023-01-27T05:39:27;100549.19;;;1.41;100.00
71195;BME280;58908;51.426;7.714;2023-01-27T05:41:53;100546.59;;;1.41;100.00
71195;BME280;58908;51.426;7.714;2023-01-27T05:44:20;100547.47;;;1.41;100.00
71195;BME280;58908;51.426;7.714;2023-01-27T05:46:47;100551.78;;;1.42;100.00
71195;BME280;58908;51.426;7.714;2023-01-27T05:49:13;100553.50;;;1.43;100.00
71195;BME280;58908;51.426;7.714;2023-01-27T05:51:40;100551.78;;;1.42;100.00
71195;BME280;58908;51.426;7.714;2023-01-27T05:54:06;100559.59;;;1.42;100.00
71195;BME280;58908;51.426;7.714;2023-01-27T05:56:32;100557.81;;;1.43;100.00
71195;BME280;58908;51.426;7.714;2023-01-27T05:58:59;100552.63;;;1.44;100.00
71195;BME280;58908;51.426;7.714;2023-01-27T06:01:26;100552.63;;;1.43;100.00
71195;BME280;58908;51.426;7.714;2023-01-27T06:03:54;100565.63;;;1.44;100.00
71195;BME280;58908;51.426;7.714;2023-01-27T06:06:21;100559.53;;;1.44;100.00
71195;BME280;58908;51.426;7.714;2023-01-27T06:08:47;100559.59;;;1.42;100.00
71195;BME280;58908;51.426;7.714;2023-01-27T06:11:14;100554.34;;;1.44;100.00
71195;BME280;58908;51.426;7.714;2023-01-27T06:13:40;100563.88;;;1.46;100.00
71195;BME280;58908;51.426;7.714;2023-01-27T06:16:07;100563.88;;;1.48;100.00
71195;BME280;58908;51.426;7.714;2023-01-27T06:18:34;100566.44;;;1.49;100.00
71195;BME280;58908;51.426;7.714;2023-01-27T06:21:02;100563.84;;;1.49;100.00
71195;BME280;58908;51.426;7.714;2023-01-27T06:23:29;100563.84;;;1.49;100.00
71195;BME280;58908;51.426;7.714;2023-01-27T06:25:55;100561.22;;;1.49;100.00
71195;BME280;58908;51.426;7.714;2023-01-27T06:28:25;100567.31;;;1.50;100.00
71195;BME280;58908;51.426;7.714;2023-01-27T06:30:51;100568.19;;;1.50;100.00
71195;BME280;58908;51.426;7.714;2023-01-27T06:33:18;100571.63;;;1.52;100.00
71195;BME280;58908;51.426;7.714;2023-01-27T06:35:44;100575.06;;;1.53;100.00
71195;BME280;58908;51.426;7.714;2023-01-27T06:38:12;100575.94;;;1.52;100.00
71195;BME280;58908;51.426;7.714;2023-01-27T06:40:39;100577.69;;;1.53;100.00
71195;BME280;58908;51.426;7.714;2023-01-27T06:43:08;100583.75;;;1.53;100.00
71195;BME280;58908;51.426;7.714;2023-01-27T06:45:35;100585.47;;;1.53;100.00
71195;BME280;58908;51.426;7.714;2023-01-27T06:48:02;100585.47;;;1.53;100.00
71195;BME280;58908;51.426;7.714;2023-01-27T06:50:28;100590.66;;;1.54;100.00
71195;BME280;58908;51.426;7.714;2023-01-27T06:52:58;100586.34;;;1.53;100.00
71195;BME280;58908;51.426;7.714;2023-01-27T06:55:25;100587.19;;;1.54;100.00
71195;BME280;58908;51.426;7.714;2023-01-27T06:57:52;100588.94;;;1.53;100.00
71195;BME280;58908;51.426;7.714;2023-01-27T07:00:18;100597.63;;;1.52;100.00
71195;BME280;58908;51.426;7.714;2023-01-27T07:02:44;100592.44;;;1.51;100.00
71195;BME280;58908;51.426;7.714;2023-01-27T07:05:11;100601.94;;;1.52;100.00
71195;BME280;58908;51.426;7.714;2023-01-27T07:07:37;100601.94;;;1.53;100.00
71195;BME280;58908;51.426;7.714;2023-01-27T07:10:04;100599.34;;;1.52;100.00
71195;BME280;58908;51.426;7.714;2023-01-27T07:12:32;100604.56;;;1.52;100.00
71195;BME280;58908;51.426;7.714;2023-01-27T07:15:01;100608.03;;;1.52;100.00
71195;BME280;58908;51.426;7.714;2023-01-27T07:17:28;100606.28;;;1.54;100.00
71195;BME280;58908;51.426;7.714;2023-01-27T07:19:54;100608.88;;;1.53;100.00
71195;BME280;58908;51.426;7.714;2023-01-27T07:22:20;100609.75;;;1.53;100.00
71195;BME280;58908;51.426;7.714;2023-01-27T07:24:46;100612.31;;;1.55;100.00
71195;BME280;58908;51.426;7.714;2023-01-27T07:27:12;100616.66;;;1.54;100.00
71195;BME280;58908;51.426;7.714;2023-01-27T07:29:40;100618.41;;;1.55;100.00
71195;BME280;58908;51.426;7.714;2023-01-27T07:32:06;100622.72;;;1.55;100.00
71195;BME280;58908;51.426;7.714;2023-01-27T07:34:32;100620.13;;;1.55;100.00
71195;BME280;58908;51.426;7.714;2023-01-27T07:36:59;100618.41;;;1.55;100.00
71195;BME280;58908;51.426;7.714;2023-01-27T07:39:25;100622.72;;;1.56;100.00
71195;BME280;58908;51.426;7.714;2023-01-27T07:41:52;100628.75;;;1.58;100.00
71195;BME280;58908;51.426;7.714;2023-01-27T07:44:18;100626.16;;;1.58;100.00
71195;BME280;58908;51.426;7.714;2023-01-27T07:46:46;100623.56;;;1.60;100.00
71195;BME280;58908;51.426;7.714;2023-01-27T07:49:13;100626.16;;;1.61;100.00
71195;BME280;58908;51.426;7.714;2023-01-27T07:51:39;100625.28;;;1.62;100.00
71195;BME280;58908;51.426;7.714;2023-01-27T07:54:05;100626.09;;;1.66;100.00
71195;BME280;58908;51.426;7.714;2023-01-27T07:56:32;100626.09;;;1.66;100.00
71195;BME280;58908;51.426;7.714;2023-01-27T07:59:00;100631.28;;;1.67;100.00
71195;BME280;58908;51.426;7.714;2023-01-27T08:01:26;100631.25;;;1.72;100.00
71195;BME280;58908;51.426;7.714;2023-01-27T08:03:54;100627.78;;;1.74;100.00
71195;BME280;58908;51.426;7.714;2023-01-27T08:06:20;100633.78;;;1.78;100.00
71195;BME280;58908;51.426;7.714;2023-01-27T08:08:46;100635.56;;;1.79;100.00
71195;BME280;58908;51.426;7.714;2023-01-27T08:11:13;100638.09;;;1.85;100.00
71195;BME280;58908;51.426;7.714;2023-01-27T08:13:40;100638.97;;;1.85;100.00
71195;BME280;58908;51.426;7.714;2023-01-27T08:16:08;100645.00;;;1.87;100.00
71195;BME280;58908;51.426;7.714;2023-01-27T08:18:36;100641.53;;;1.90;100.00
71195;BME280;58908;51.426;7.714;2023-01-27T08:21:04;100634.56;;;1.92;100.00
71195;BME280;58908;51.426;7.714;2023-01-27T08:23:31;100638.00;;;1.94;100.00
71195;BME280;58908;51.426;7.714;2023-01-27T08:25:59;100638.84;;;1.94;100.00
71195;BME280;58908;51.426;7.714;2023-01-27T08:28:26;100639.75;;;1.96;100.00
71195;BME280;58908;51.426;7.714;2023-01-27T08:30:53;100638.81;;;2.00;100.00
71195;BME280;58908;51.426;7.714;2023-01-27T08:33:19;100639.66;;;2.02;100.00
71195;BME280;58908;51.426;7.714;2023-01-27T08:35:46;100635.34;;;2.03;100.00
71195;BME280;58908;51.426;7.714;2023-01-27T08:38:14;100643.97;;;2.06;100.00
71195;BME280;58908;51.426;7.714;2023-01-27T08:40:41;100642.22;;;2.08;100.00
71195;BME280;58908;51.426;7.714;2023-01-27T08:43:07;100646.56;;;2.09;100.00
71195;BME280;58908;51.426;7.714;2023-01-27T08:45:34;100644.78;;;2.11;100.00
71195;BME280;58908;51.426;7.714;2023-01-27T08:48:00;100643.03;;;2.13;100.00
71195;BME280;58908;51.426;7.714;2023-01-27T08:50:27;100639.59;;;2.13;100.00
71195;BME280;58908;51.426;7.714;2023-01-27T08:52:54;100653.44;;;2.13;100.00
71195;BME280;58908;51.426;7.714;2023-01-27T08:55:24;100644.75;;;2.14;100.00
71195;BME280;58908;51.426;7.714;2023-01-27T08:57:50;100649.06;;;2.17;100.00
71195;BME280;58908;51.426;7.714;2023-01-27T09:00:17;100664.69;;;2.18;100.00
71195;BME280;58908;51.426;7.714;2023-01-27T09:02:43;100665.53;;;2.20;100.00
71195;BME280;58908;51.426;7.714;2023-01-27T09:05:09;100656.84;;;2.23;100.00
71195;BME280;58908;51.426;7.714;2023-01-27T09:07:35;100664.63;;;2.26;100.00
71195;BME280;58908;51.426;7.714;2023-01-27T09:10:02;100665.47;;;2.26;100.00
71195;BME280;58908;51.426;7.714;2023-01-27T09:12:30;100665.47;;;2.26;100.00
71195;BME280;58908;51.426;7.714;2023-01-27T09:14:56;100677.59;;;2.28;100.00
71195;BME280;58908;51.426;7.714;2023-01-27T09:17:23;100668.94;;;2.28;100.00
71195;BME280;58908;51.426;7.714;2023-01-27T09:19:49;100673.22;;;2.32;100.00
71195;BME280;58908;51.426;7.714;2023-01-27T09:22:15;100674.94;;;2.34;100.00
71195;BME280;58908;51.426;7.714;2023-01-27T09:24:42;100679.28;;;2.35;100.00
71195;BME280;58908;51.426;7.714;2023-01-27T09:27:08;100686.16;;;2.38;100.00
71195;BME280;58908;51.426;7.714;2023-01-27T09:29:35;100680.97;;;2.38;100.00
71195;BME280;58908;51.426;7.714;2023-01-27T09:32:03;100695.69;;;2.40;100.00
71195;BME280;58908;51.426;7.714;2023-01-27T09:34:30;100695.69;;;2.40;100.00
71195;BME280;58908;51.426;7.714;2023-01-27T09:36:57;100697.41;;;2.41;100.00
71195;BME280;58908;51.426;7.714;2023-01-27T09:39:24;100699.16;;;2.41;100.00
71195;BME280;58908;51.426;7.714;2023-01-27T09:41:58;100704.38;;;2.41;100.00
71195;BME280;58908;51.426;7.714;2023-01-27T09:47:25;100696.56;;;2.39;100.00
71195;BME280;58908;51.426;7.714;2023-01-27T09:50:11;100702.66;;;2.40;100.00
71195;BME280;58908;51.426;7.714;2023-01-27T09:53:04;100715.59;;;2.46;100.00
71195;BME280;58908;51.426;7.714;2023-01-27T09:55:37;100713.00;;;2.46;100.00
71195;BME280;58908;51.426;7.714;2023-01-27T09:58:08;100709.50;;;2.48;100.00
71195;BME280;58908;51.426;7.714;2023-01-27T10:00:42;100707.78;;;2.47;100.00
71195;BME280;58908;51.426;7.714;2023-01-27T10:03:16;100718.16;;;2.49;100.00
71195;BME280;58908;51.426;7.714;2023-01-27T10:05:53;100714.72;;;2.47;100.00
71195;BME280;58908;51.426;7.714;2023-01-27T10:08:27;100716.44;;;2.48;100.00
71195;BME280;58908;51.426;7.714;2023-01-27T10:11:06;100712.94;;;2.50;100.00
71195;BME280;58908;51.426;7.714;2023-01-27T10:13:36;100724.22;;;2.52;100.00
71195;BME280;58908;51.426;7.714;2023-01-27T10:16:16;100723.38;;;2.49;100.00
71195;BME280;58908;51.426;7.714;2023-01-27T10:18:51;100725.09;;;2.51;100.00
71195;BME280;58908;51.426;7.714;2023-01-27T10:21:24;100723.38;;;2.52;100.00
71195;BME280;58908;51.426;7.714;2023-01-27T10:23:54;100723.31;;;2.55;100.00
71195;BME280;58908;51.426;7.714;2023-01-27T10:26:27;100718.13;;;2.56;100.00
71195;BME280;58908;51.426;7.714;2023-01-27T10:28:56;100727.66;;;2.56;100.00
71195;BME280;58908;51.426;7.714;2023-01-27T10:31:25;100724.22;;;2.54;100.00
71195;BME280;58908;51.426;7.714;2023-01-27T10:33:59;100721.59;;;2.55;100.00
71195;BME280;58908;51.426;7.714;2023-01-27T10:36:32;100722.44;;;2.56;100.00
71195;BME280;58908;51.426;7.714;2023-01-27T10:39:07;100719.84;;;2.57;100.00
71195;BME280;58908;51.426;7.714;2023-01-27T10:41:40;100723.25;;;2.61;100.00
71195;BME280;58908;51.426;7.714;2023-01-27T10:44:13;100718.91;;;2.63;100.00
71195;BME280;58908;51.426;7.714;2023-01-27T10:46:44;100720.63;;;2.64;100.00
71195;BME280;58908;51.426;7.714;2023-01-27T10:49:17;100718.91;;;2.63;100.00
71195;BME280;58908;51.426;7.714;2023-01-27T10:51:48;100714.59;;;2.59;100.00
71195;BME280;58908;51.426;7.714;2023-01-27T10:54:17;100715.44;;;2.64;100.00
71195;BME280;58908;51.426;7.714;2023-01-27T10:56:47;100717.16;;;2.65;100.00
71195;BME280;58908;51.426;7.714;2023-01-27T10:59:17;100722.31;;;2.68;100.00
71195;BME280;58908;51.426;7.714;2023-01-27T11:01:48;100711.91;;;2.66;100.00
71195;BME280;58908;51.426;7.714;2023-01-27T11:04:17;100714.50;;;2.68;100.00
71195;BME280;58908;51.426;7.714;2023-01-27T11:06:46;100713.63;;;2.70;100.00
71195;BME280;58908;51.426;7.714;2023-01-27T11:09:15;100713.59;;;2.72;100.00
71195;BME280;58908;51.426;7.714;2023-01-27T11:11:42;100711.81;;;2.77;100.00
71195;BME280;58908;51.426;7.714;2023-01-27T11:14:11;100710.09;;;2.76;100.00
71195;BME280;58908;51.426;7.714;2023-01-27T11:16:41;100701.31;;;2.83;100.00
71195;BME280;58908;51.426;7.714;2023-01-27T11:19:10;100706.47;;;2.89;100.00
71195;BME280;58908;51.426;7.714;2023-01-27T11:21:41;100693.44;;;2.90;100.00
71195;BME280;58908;51.426;7.714;2023-01-27T11:24:20;100691.72;;;2.88;100.00
71195;BME280;58908;51.426;7.714;2023-01-27T11:26:47;100692.69;;;2.79;100.00
71195;BME280;58908;51.426;7.714;2023-01-27T11:29:18;100698.75;;;2.80;100.00
71195;BME280;58908;51.426;7.714;2023-01-27T11:31:48;100697.84;;;2.82;100.00
71195;BME280;58908;51.426;7.714;2023-01-27T11:34:17;100695.94;;;2.96;100.00
71195;BME280;58908;51.426;7.714;2023-01-27T11:36:47;100695.09;;;2.94;100.00
71195;BME280;58908;51.426;7.714;2023-01-27T11:39:14;100692.31;;;3.11;100.00
71195;BME280;58908;51.426;7.714;2023-01-27T11:41:44;100696.69;;;3.07;100.00
71195;BME280;58908;51.426;7.714;2023-01-27T11:44:15;100695.84;;;3.05;100.00
71195;BME280;58908;51.426;7.714;2023-01-27T11:46:43;100701.84;;;3.12;100.00
71195;BME280;58908;51.426;7.714;2023-01-27T11:49:10;100694.84;;;3.15;100.00
71195;BME280;58908;51.426;7.714;2023-01-27T11:51:39;100695.75;;;3.13;100.00
71195;BME280;58908;51.426;7.714;2023-01-27T11:54:11;100703.53;;;3.16;100.00
71195;BME280;58908;51.426;7.714;2023-01-27T11:56:39;100696.59;;;3.15;100.00
71195;BME280;58908;51.426;7.714;2023-01-27T11:59:07;100700.91;;;3.19;100.00
71195;BME280;58908;51.426;7.714;2023-01-27T12:01:37;100698.28;;;3.19;100.00
71195;BME280;58908;51.426;7.714;2023-01-27T12:04:05;100690.59;;;3.08;100.00
71195;BME280;58908;51.426;7.714;2023-01-27T12:06:36;100696.75;;;3.03;100.00
71195;BME280;58908;51.426;7.714;2023-01-27T12:09:03;100687.94;;;3.13;100.00
71195;BME280;58908;51.426;7.714;2023-01-27T12:11:31;100693.19;;;3.10;100.00
71195;BME280;58908;51.426;7.714;2023-01-27T12:13:58;100691.38;;;3.16;100.00
71195;BME280;58908;51.426;7.714;2023-01-27T12:16:26;100688.75;;;3.16;100.00
71195;BME280;58908;51.426;7.714;2023-01-27T12:18:59;100679.09;;;3.24;100.00
71195;BME280;58908;51.426;7.714;2023-01-27T12:21:34;100680.88;;;3.19;100.00
71195;BME280;58908;51.426;7.714;2023-01-27T12:24:03;100680.94;;;3.15;100.00
71195;BME280;58908;51.426;7.714;2023-01-27T12:26:34;100687.03;;;3.15;100.00
71195;BME280;58908;51.426;7.714;2023-01-27T12:29:03;100681.81;;;3.15;100.00
71195;BME280;58908;51.426;7.714;2023-01-27T12:31:30;100674.06;;;3.12;100.00
71195;BME280;58908;51.426;7.714;2023-01-27T12:33:58;100677.44;;;3.19;100.00
71195;BME280;58908;51.426;7.714;2023-01-27T12:36:25;100679.16;;;3.20;100.00
71195;BME280;58908;51.426;7.714;2023-01-27T12:38:52;100679.94;;;3.28;100.00
71195;BME280;58908;51.426;7.714;2023-01-27T12:41:19;100679.00;;;3.33;100.00
71195;BME280;58908;51.426;7.714;2023-01-27T12:43:50;100680.59;;;3.42;100.00
71195;BME280;58908;51.426;7.714;2023-01-27T12:46:19;100679.84;;;3.34;100.00
71195;BME280;58908;51.426;7.714;2023-01-27T12:48:46;100673.78;;;3.33;100.00
71195;BME280;58908;51.426;7.714;2023-01-27T12:51:14;100670.34;;;3.30;100.00
71195;BME280;58908;51.426;7.714;2023-01-27T12:53:40;100674.84;;;3.17;100.00
71195;BME280;58908;51.426;7.714;2023-01-27T12:56:09;100675.78;;;3.10;100.00
71195;BME280;58908;51.426;7.714;2023-01-27T12:58:37;100679.38;;;3.02;100.00
71195;BME280;58908;51.426;7.714;2023-01-27T13:01:06;100681.16;;;3.00;100.00
71195;BME280;58908;51.426;7.714;2023-01-27T13:03:42;100683.81;;;2.97;100.00